Terminal Aerodrome Forecast
Issued by NWS

Home | Current Version | Previous Version | Text Only | Print | Product List | Glossary On
Versions: 1 2 3 4 5 6 7 8 9 10 11 12 13 14 15 16 17 18 19
000
FTUS46 KSEW 211146
TAFBFI
TAF
KBFI 211146Z 2112/2212 VRB03KT P6SM SKC
     FM211600 VRB03KT P6SM SCT120 BKN200
     FM212000 16004KT P6SM BKN100 OVC200
     FM220000 16006KT P6SM SCT045 OVC070
     FM220300 VRB04KT P6SM VCSH SCT035 OVC050
      TEMPO 2204/2208 6SM -SN BR OVC035
     FM221100 36005KT P6SM SCT060 BKN120 BKN200=

USA.gov is the U.S. government's official web portal to all federal, state and local government web resources and services.